Aérodrome :
LOGIN :

S'inscrire | Disclaimer

   EN    FR    IT 

 










Légende :    VFR   VFR Marginal   IFR   IFR Intensif   IFR Très Intensif
Visi : 
Plafond : 
>= 8 km
>= 3000ft
5 à 8 km
1000 à 3000 ft
1500m à 5 km
500 à 1000 ft
800 à 1500m
200 à 500 ft
< 800m
< 200 ft
Symboles :   Orages  Brouillard  Fortes neiges  Fortes précipitations  Vent > 20 kt
SIGMETs :   Divers  Orages  Givrage  Turbulence  Onde Orograph.  Cendres Volcan.







- Altitude de l'aérodrome : 17 ft
- Code IATA : MPL
- Voir les cartes d'approche


LFMT - Montpellier Méditerranée

DERNIER METAR :
  • 140800Z AUTO 28007KT 9999 BKN044 OVC052 10/08 Q1014 NOSIG

METARs EXPIRÉS :
  • 140730Z AUTO 24006KT CAVOK 10/08 Q1013 NOSIG
  • 140700Z AUTO 25005KT CAVOK 09/07 Q1013 NOSIG
  • 140630Z AUTO 25007KT 9999 FEW042 SCT052 OVC160 10/07 Q1013 NOSIG
  • 140600Z AUTO 23006KT 9999 BKN047 BKN060 BKN160 09/07 Q1013 NOSIG
  • 140530Z AUTO 24005KT 9999 BKN047 OVC058 09/07 Q1013 NOSIG

TAF TAF LFMT
Valide du 14 à 03h jusqu'au 15 à 03h UTC


140200Z 1403/1503 VRB02KT 8000 SCT030 BKN045
BECMG 1408/1410 26012KT
TEMPO 1415/1503 25015G25KT
ATIS : +33 4 67 13 11 70
Pas de NOTAMs connus pour ce terrain.
2 SIGMETs publiés pour la FIR Marseille (LFMM) :
 
Turbulence forte
LFMM SIGMET 3 VALID 140600/141000 LFPW
LFMM MARSEILLE FIR/UIR SEV TURB FCST WI N4345 E00730 - N4315 E00945 - N4115 E00945 - N4115 E00845 - N4230 E00830 - N4330 E00645 - N4345 E00730 SFC/FL070 STNR INTSF=
Onde orographique forte
LFMM SIGMET 2 VALID 140600/140900 LFPW
LFMM MARSEILLE FIR/UIR SEV MTW FCST E OF E00900 SFC/FL320 STNR NC=



MET'MAP, la Météo Aéronautique d'un coup d'oeil ! - Copyright ORBIFLY Décembre 2007 - Disclaimer

ORBIFLY MET'MAP TEAM :

Programmation & Développement : Alexandra Zaïnal
Conception & Développement : Baudouin d'Aumeries
Co-Programmation & Développement : Marc-Olivier Méhu
Soutien technique & logistique : Manuel Goepfert

Contact : metmap@orbifly.com




SOURCES & CREDITS :

   NOAA